Time;durP1;ratioP1;P1;durP2;ratioP2;P2;SDS_P1;SDS_P2;PMS_P1;PMS_P2;Temp;Humidity;BMP_temperature;BMP_pressure;BME280_temperature;BME280_humidity;BME280_pressure;Samples;Min_cycle;Max_cycle;Signal;HPM_P1;HPM_P2
2022/06/26 06:26:35;;;;;;;22.85;19.55;;;;;;;21.03;75.51;101124.38;5097202;27;20549;-39
2022/06/26 06:29:03;;;;;;;24.98;20.02;;;;;;;21.01;75.22;101128.91;5092130;28;20043;-37
2022/06/26 06:31:31;;;;;;;22.65;19.48;;;;;;;21.02;75.60;101122.66;5092014;28;20028;-40
2022/06/26 06:33:56;;;;;;;23.15;19.70;;;;;;;21.01;75.70;101121.81;5091141;28;20060;-37
2022/06/26 06:36:22;;;;;;;22.05;19.75;;;;;;;21.03;75.65;101127.06;5092000;28;20039;-37
2022/06/26 06:38:47;;;;;;;24.10;19.20;;;;;;;21.00;75.67;101127.19;5074033;28;20334;-38
2022/06/26 06:41:12;;;;;;;20.75;18.55;;;;;;;21.03;75.75;101127.06;5091965;28;20024;-40
2022/06/26 06:43:38;;;;;;;21.00;18.73;;;;;;;21.04;75.57;101134.06;5091831;28;20446;-38
2022/06/26 06:46:03;;;;;;;22.33;19.15;;;;;;;21.21;76.93;101136.75;5090824;28;20311;-60
2022/06/26 06:48:31;;;;;;;21.60;18.15;;;;;;;21.01;77.84;101136.91;5091693;28;20028;-60
2022/06/26 06:50:56;;;;;;;20.45;16.83;;;;;;;21.01;77.74;101129.78;5091843;28;20361;-59
2022/06/26 06:53:24;;;;;;;31.35;20.27;;;;;;;21.41;75.24;101137.53;5090626;28;20016;-58
2022/06/26 06:55:49;;;;;;;84.50;35.90;;;;;;;21.61;74.22;101133.81;5090485;28;20453;-56
2022/06/26 06:58:15;;;;;;;75.40;34.13;;;;;;;21.70;73.92;101136.88;5091255;28;20039;-54
2022/06/26 07:00:40;;;;;;;70.07;33.17;;;;;;;21.64;74.19;101131.00;5090236;28;20035;-50
2022/06/26 07:03:05;;;;;;;63.08;30.23;;;;;;;21.56;74.06;101127.88;5091406;28;20077;-57
2022/06/26 07:05:31;;;;;;;68.32;33.67;;;;;;;21.66;74.29;101129.97;5091370;28;20112;-52
2022/06/26 07:07:59;;;;;;;69.20;33.30;;;;;;;21.70;74.09;101131.53;5091257;28;20089;-53
2022/06/26 07:10:26;;;;;;;70.68;30.23;;;;;;;21.71;74.58;101130.59;5090368;28;20042;-59
2022/06/26 07:12:56;;;;;;;53.83;27.50;;;;;;;21.74;74.92;101128.72;5091280;28;20503;-62
2022/06/26 07:15:21;;;;;;;49.85;26.42;;;;;;;21.78;75.04;101130.28;5091391;28;20017;-61
2022/06/26 07:17:47;;;;;;;52.10;24.85;;;;;;;21.79;74.98;101131.97;5073257;28;20024;-55
2022/06/26 07:20:12;;;;;;;43.35;24.73;;;;;;;21.77;75.47;101124.06;5073529;28;20024;-59
2022/06/26 07:22:38;;;;;;;43.92;24.50;;;;;;;21.73;74.85;101121.66;5090264;28;20024;-56
2022/06/26 07:25:03;;;;;;;36.38;22.73;;;;;;;21.80;75.04;101117.75;5091148;28;20036;-57
2022/06/26 07:27:31;;;;;;;41.25;21.88;;;;;;;21.80;76.15;101121.25;5090847;28;20128;-56
2022/06/26 07:29:57;;;;;;;35.92;21.23;;;;;;;21.78;74.71;101114.31;5090814;28;20070;-59
2022/06/26 07:32:22;;;;;;;34.00;21.67;;;;;;;21.80;75.13;101113.28;5089963;28;20024;-63
2022/06/26 07:34:51;;;;;;;37.08;21.83;;;;;;;21.79;75.07;101110.69;5090711;28;20402;-59
2022/06/26 07:37:16;;;;;;;30.77;18.42;;;;;;;21.80;75.64;101112.41;5080871;28;20024;-57
2022/06/26 07:39:42;;;;;;;28.88;19.65;;;;;;;21.76;75.32;101113.53;5076026;28;20495;-55
2022/06/26 07:42:12;;;;;;;25.48;19.38;;;;;;;21.77;75.03;101112.56;5076895;28;20138;-60
2022/06/26 07:44:40;;;;;;;26.60;17.52;;;;;;;21.85;74.77;101113.03;5077146;28;20029;-59
2022/06/26 07:47:05;;;;;;;26.35;16.77;;;;;;;21.95;73.92;101110.72;5076830;28;20477;-59
2022/06/26 07:49:31;;;;;;;21.48;16.58;;;;;;;21.91;73.71;101108.22;5076821;28;20105;-55
2022/06/26 07:52:01;;;;;;;22.80;18.98;;;;;;;21.87;74.03;101113.81;5075748;28;20027;-56
2022/06/26 07:54:26;;;;;;;24.33;19.08;;;;;;;21.77;73.74;101116.06;5077111;28;20025;-55
2022/06/26 07:56:52;;;;;;;33.90;25.90;;;;;;;21.78;73.52;101111.63;5076600;28;20481;-55
2022/06/26 07:59:20;;;;;;;37.00;28.70;;;;;;;21.75;73.75;101115.31;5076757;28;20021;-57
2022/06/26 08:01:46;;;;;;;53.25;40.72;;;;;;;21.75;73.56;101119.75;5076769;28;20034;-55
2022/06/26 08:04:11;;;;;;;65.75;48.40;;;;;;;21.80;73.91;101113.28;5076686;28;20024;-54
2022/06/26 08:06:37;;;;;;;63.30;46.65;;;;;;;21.91;74.40;101110.00;5076567;28;20037;-53
2022/06/26 08:09:02;;;;;;;58.80;43.53;;;;;;;21.88;74.44;101104.84;5074824;28;20024;-54
2022/06/26 08:11:27;;;;;;;52.25;40.15;;;;;;;21.83;74.35;101112.25;5058773;28;20024;-55
2022/06/26 08:13:55;;;;;;;54.72;39.70;;;;;;;21.79;73.97;101110.69;5075407;28;20044;-56
2022/06/26 08:16:23;;;;;;;39.75;31.00;;;;;;;21.80;74.06;101109.75;5076369;28;20077;-56
2022/06/26 08:18:48;;;;;;;34.40;26.33;;;;;;;21.83;73.59;101113.09;5076343;28;20028;-55
2022/06/26 08:23:57;;;;;;;27.95;21.17;;;;;;;21.85;73.86;101105.03;5076512;28;20112;-54
2022/06/26 08:26:23;;;;;;;26.15;20.90;;;;;;;21.85;73.45;101110.34;5075285;28;20477;-56
2022/06/26 08:28:49;;;;;;;18.98;16.25;;;;;;;21.81;72.99;101116.78;5076321;28;20033;-56
2022/06/26 08:31:15;;;;;;;18.05;15.77;;;;;;;21.84;72.51;101113.94;5076242;28;20446;-55
2022/06/26 08:33:40;;;;;;;19.98;16.13;;;;;;;21.87;71.85;101111.13;5075327;28;20095;-54
2022/06/26 08:36:06;;;;;;;18.58;13.57;;;;;;;21.87;71.80;101113.81;5076257;28;20032;-55
2022/06/26 08:38:31;;;;;;;14.75;13.10;;;;;;;21.89;71.29;101114.56;5075766;28;20032;-55
2022/06/26 08:41:02;;;;;;;14.88;12.45;;;;;;;21.88;71.09;101104.84;5076075;28;20103;-55
2022/06/26 08:43:27;;;;;;;16.13;13.30;;;;;;;21.85;71.03;101115.69;5075050;28;20123;-56
2022/06/26 08:45:53;;;;;;;17.30;12.43;;;;;;;21.88;70.87;101115.50;5075257;28;20111;-52
2022/06/26 08:48:21;;;;;;;13.10;11.50;;;;;;;21.91;70.31;101105.56;5057468;28;20036;-53
2022/06/26 08:50:47;;;;;;;12.50;11.20;;;;;;;21.90;70.56;101106.50;5058696;28;20028;-52
2022/06/26 08:53:15;;;;;;;13.13;10.60;;;;;;;21.89;70.45;101112.78;5075958;28;20035;-55
2022/06/26 08:55:41;;;;;;;13.43;11.57;;;;;;;21.89;70.42;101120.75;5075555;28;20031;-56
2022/06/26 08:58:14;;;;;;;14.13;12.65;;;;;;;21.92;70.32;101117.06;5074387;28;20077;-56
2022/06/26 09:00:40;;;;;;;13.48;11.48;;;;;;;21.90;70.35;101117.13;5075587;28;20407;-54
2022/06/26 09:03:05;;;;;;;13.25;11.93;;;;;;;21.96;69.94;101115.97;5075542;28;20437;-53
2022/06/26 09:05:33;;;;;;;12.70;11.40;;;;;;;21.95;69.81;101116.88;5075563;28;20020;-55
2022/06/26 09:07:59;;;;;;;17.73;12.60;;;;;;;21.96;70.29;101123.94;5074898;28;20040;-55
2022/06/26 09:10:28;;;;;;;14.15;12.18;;;;;;;21.96;70.06;101107.09;5075439;28;20024;-54
2022/06/26 09:12:57;;;;;;;13.00;11.70;;;;;;;21.92;70.29;101117.91;5058178;28;20020;-55
2022/06/26 09:15:28;;;;;;;13.10;11.60;;;;;;;21.91;69.98;101110.00;5074620;28;20036;-55
2022/06/26 09:18:01;;;;;;;13.10;11.85;;;;;;;21.95;70.20;101103.56;5075201;28;20056;-57
2022/06/26 09:20:28;;;;;;;12.98;11.68;;;;;;;21.95;69.82;101108.91;5075235;28;20205;-54
2022/06/26 09:22:54;;;;;;;13.35;12.00;;;;;;;21.96;69.73;101113.31;5074205;28;20071;-56
2022/06/26 09:25:20;;;;;;;16.02;12.10;;;;;;;21.98;69.72;101115.84;5074077;28;20024;-55
2022/06/26 09:27:45;;;;;;;13.18;11.88;;;;;;;22.06;69.53;101111.84;5074113;28;20380;-53
2022/06/26 09:30:11;;;;;;;13.77;12.32;;;;;;;22.04;69.89;101102.22;5075015;28;20039;-54
2022/06/26 09:32:36;;;;;;;14.60;12.07;;;;;;;21.99;70.10;101107.78;5074845;28;20024;-57
2022/06/26 09:35:04;;;;;;;13.15;11.63;;;;;;;21.96;70.28;101105.31;5074843;28;20024;-54
2022/06/26 09:37:39;;;;;;;14.73;11.63;;;;;;;21.91;69.74;101116.22;5075095;28;20036;-57
2022/06/26 09:40:08;;;;;;;13.68;12.27;;;;;;;22.02;69.59;101110.28;5073949;28;20040;-55
2022/06/26 09:42:34;;;;;;;13.27;11.98;;;;;;;22.01;70.38;101105.91;5073865;28;20028;-55
2022/06/26 09:45:01;;;;;;;13.75;12.35;;;;;;;22.07;69.93;101115.34;5074859;28;20017;-55
2022/06/26 09:47:35;;;;;;;16.20;11.07;;;;;;;22.10;69.77;101115.16;5074993;28;20457;-52
2022/06/26 09:50:04;;;;;;;12.98;11.65;;;;;;;22.12;69.33;101127.47;5057768;28;20024;-55
2022/06/26 09:52:31;;;;;;;12.05;10.85;;;;;;;22.13;69.23;101113.22;5074796;28;20103;-56
2022/06/26 09:54:56;;;;;;;12.80;11.20;;;;;;;22.15;69.34;101115.81;5057367;28;20438;-58
2022/06/26 09:57:25;;;;;;;11.40;10.27;;;;;;;22.15;69.20;101118.47;5074660;28;20031;-58
2022/06/26 09:59:56;;;;;;;12.82;11.50;;;;;;;22.14;69.33;101111.41;5057448;28;20035;-56
2022/06/26 10:07:57;;;;;;;11.70;10.50;;;;;;;22.12;69.52;101113.28;5074115;28;20042;-56
2022/06/26 10:10:23;;;;;;;11.50;10.30;;;;;;;22.08;69.39;101112.63;5073667;28;20021;-58
2022/06/26 10:12:56;;;;;;;12.15;10.82;;;;;;;22.09;69.23;101119.63;5073541;28;20020;-58
2022/06/26 10:15:26;;;;;;;11.48;10.30;;;;;;;22.14;68.56;101116.72;5073694;28;20020;-53
2022/06/26 10:18:04;;;;;;;;;;;;;;;22.23;68.46;101131.38;5057420;28;20120;-54
2022/06/26 10:20:29;;;;;;;11.65;10.45;;;;;;;22.18;68.47;101122.75;5074079;28;19908;-51
2022/06/26 10:22:55;;;;;;;12.13;10.93;;;;;;;22.11;68.63;101120.41;5073465;28;20034;-55
2022/06/26 10:25:25;;;;;;;12.27;10.63;;;;;;;22.13;68.48;101131.00;5074546;28;20021;-54
2022/06/26 10:27:50;;;;;;;12.02;10.23;;;;;;;22.17;67.67;101124.53;5040757;28;20440;-53
2022/06/26 10:30:21;;;;;;;12.15;10.88;;;;;;;22.12;68.26;101124.81;5073634;28;20095;-54
2022/06/26 10:33:07;;;;;;;12.07;10.88;;;;;;;22.19;67.73;101121.78;5073580;28;20020;-56
2022/06/26 10:35:43;;;;;;;12.05;10.07;;;;;;;22.24;68.13;101122.41;5057980;28;20103;-57
2022/06/26 10:38:21;;;;;;;11.73;10.52;;;;;;;22.19;68.06;101119.13;5074253;28;20020;-58
2022/06/26 10:44:02;;;;;;;19.33;14.45;;;;;;;22.32;67.45;101121.06;5073434;28;20035;-62
2022/06/26 10:46:35;;;;;;;15.38;13.75;;;;;;;22.26;67.33;101120.53;5074136;28;20024;-60
2022/06/26 10:49:03;;;;;;;14.98;13.38;;;;;;;22.28;66.81;101116.00;5073754;28;20032;-63
2022/06/26 10:51:34;;;;;;;13.00;11.70;;;;;;;22.25;67.24;101114.34;5074170;28;20024;-62
2022/06/26 10:54:04;;;;;;;13.75;12.10;;;;;;;22.23;67.27;101120.72;5074613;28;20411;-66
2022/06/26 10:56:34;;;;;;;12.88;11.40;;;;;;;22.25;67.26;101113.50;5073420;28;20104;-61
2022/06/26 10:59:01;;;;;;;11.02;9.38;;;;;;;22.25;67.04;101109.03;5073949;28;20101;-60
2022/06/26 11:01:27;;;;;;;12.43;11.18;;;;;;;22.24;67.50;101106.44;5056386;28;20029;-66
2022/06/26 11:03:52;;;;;;;9.73;8.82;;;;;;;22.24;67.20;101103.78;5074033;28;20025;-63
2022/06/26 11:06:20;;;;;;;10.65;9.55;;;;;;;22.22;67.28;101097.69;5074348;28;20021;-64
2022/06/26 11:08:50;;;;;;;10.10;9.15;;;;;;;22.23;67.91;101099.41;5074170;28;20021;-64
2022/06/26 11:11:22;;;;;;;11.07;9.65;;;;;;;22.18;67.58;101102.31;5074341;28;20063;-58
2022/06/26 11:13:59;;;;;;;10.43;9.02;;;;;;;22.44;66.41;101102.66;5083277;28;20101;-57
2022/06/26 11:16:33;;;;;;;10.30;9.07;;;;;;;22.49;66.49;101104.09;5089151;28;20356;-62
2022/06/26 11:18:59;;;;;;;11.23;8.77;;;;;;;22.42;66.48;101100.06;5097842;28;20032;-63
2022/06/26 11:21:28;;;;;;;10.27;9.18;;;;;;;22.36;66.77;101099.56;5089641;28;20049;-58
2022/06/26 11:23:54;;;;;;;11.60;9.45;;;;;;;22.35;66.33;101096.03;5109623;28;20058;-60
2022/06/26 11:26:20;;;;;;;11.27;9.52;;;;;;;22.41;66.39;101098.38;5077969;28;20028;-58
2022/06/26 11:28:48;;;;;;;15.48;10.25;;;;;;;22.36;66.26;101099.56;5081060;28;20032;-57
2022/06/26 11:31:21;;;;;;;12.85;11.30;;;;;;;22.30;66.66;101098.97;5076593;28;20046;-56
2022/06/26 11:33:50;;;;;;;19.85;15.02;;;;;;;22.31;66.39;101095.38;5076836;28;20117;-58
2022/06/26 11:36:16;;;;;;;19.85;16.75;;;;;;;22.33;66.35;101095.28;5089647;28;20032;-58
2022/06/26 11:38:53;;;;;;;17.25;14.02;;;;;;;22.37;66.00;101096.81;5088508;28;20448;-58
2022/06/26 11:41:19;;;;;;;13.95;11.98;;;;;;;22.41;66.04;101087.72;5077748;28;20042;-57
2022/06/26 11:43:49;;;;;;;14.73;12.18;;;;;;;22.38;66.07;101087.88;5082963;28;20021;-56
2022/06/26 11:46:14;;;;;;;;;;;;;;;22.34;66.44;101095.19;5086334;28;20449;-56
2022/06/26 11:48:45;;;;;;;11.43;10.25;;;;;;;22.37;66.24;101091.50;5074178;28;19912;-55
2022/06/26 11:51:13;;;;;;;11.27;10.15;;;;;;;22.41;66.82;101095.72;5109574;28;20055;-59
2022/06/26 11:53:46;;;;;;;13.90;9.98;;;;;;;22.44;66.74;101089.34;5077826;28;20079;-57
2022/06/26 11:56:17;;;;;;;10.60;9.60;;;;;;;22.43;67.13;101088.50;5076086;28;20378;-58
2022/06/26 11:58:47;;;;;;;11.98;10.00;;;;;;;22.43;66.75;101088.50;5076993;28;20414;-58
2022/06/26 12:01:15;;;;;;;11.52;10.35;;;;;;;22.45;67.80;101094.59;5087045;28;20044;-58
2022/06/26 12:03:46;;;;;;;19.90;10.48;;;;;;;22.64;66.91;101094.38;5078208;28;20032;-58
2022/06/26 12:06:13;;;;;;;12.07;9.68;;;;;;;22.70;65.95;101087.81;5084644;28;20024;-61
2022/06/26 12:08:38;;;;;;;20.23;15.85;;;;;;;22.71;65.58;101082.41;5076046;28;20430;-62
2022/06/26 12:11:04;;;;;;;30.88;22.70;;;;;;;22.76;65.92;101083.00;5075956;28;20025;-60
2022/06/26 12:13:33;;;;;;;34.70;24.85;;;;;;;22.85;65.33;101083.38;5076631;28;20020;-56
2022/06/26 12:16:08;;;;;;;28.65;21.42;;;;;;;22.87;65.95;101085.00;5108521;27;20051;-59
2022/06/26 12:18:40;;;;;;;48.78;34.55;;;;;;;22.84;65.47;101089.69;5074692;28;20046;-59
2022/06/26 12:21:21;;;;;;;116.57;70.80;;;;;;;22.75;66.12;101091.94;5074734;28;20085;-60
2022/06/26 12:23:51;;;;;;;267.65;150.57;;;;;;;22.78;65.61;101096.25;5074436;28;20024;-60
2022/06/26 12:26:17;;;;;;;;;;;;;;;22.82;66.57;101084.44;5074223;28;20020;-57
2022/06/26 12:28:43;;;;;;;243.73;139.43;;;;;;;22.84;65.86;101084.34;5074184;28;19973;-58
2022/06/26 12:31:08;;;;;;;191.65;114.75;;;;;;;22.89;64.99;101083.13;5074559;28;20024;-59
2022/06/26 12:33:34;;;;;;;132.43;82.20;;;;;;;22.90;64.65;101084.00;5073716;28;20040;-60
2022/06/26 12:35:59;;;;;;;95.03;58.60;;;;;;;22.88;64.53;101084.06;5074627;28;20394;-58
2022/06/26 12:38:28;;;;;;;72.07;46.33;;;;;;;22.83;64.68;101083.50;5074708;28;20412;-60
2022/06/26 12:40:54;;;;;;;53.03;35.42;;;;;;;22.88;64.25;101078.75;5073920;28;20020;-58
2022/06/26 12:43:24;;;;;;;43.58;29.38;;;;;;;22.93;63.79;101083.81;5074079;28;20021;-59
2022/06/26 12:45:50;;;;;;;24.50;19.27;;;;;;;22.97;63.71;101080.00;5073691;28;20043;-58
2022/06/26 12:48:15;;;;;;;23.23;17.90;;;;;;;23.00;63.55;101079.00;5074374;28;20449;-59
2022/06/26 12:50:43;;;;;;;22.20;15.27;;;;;;;23.02;63.05;101077.09;5074275;28;20548;-59
2022/06/26 12:53:09;;;;;;;17.33;13.82;;;;;;;23.02;63.21;101069.09;5073787;28;20024;-59
2022/06/26 12:55:36;;;;;;;15.68;12.38;;;;;;;22.95;63.41;101072.09;5074151;28;20081;-59
2022/06/26 12:58:04;;;;;;;13.15;11.15;;;;;;;22.85;64.52;101070.94;5074086;28;20028;-59
2022/06/26 13:00:32;;;;;;;12.18;10.93;;;;;;;22.83;63.71;101072.84;5073378;28;20364;-60
2022/06/26 13:02:57;;;;;;;11.45;10.35;;;;;;;22.86;63.38;101069.97;5072550;28;20030;-59
2022/06/26 13:05:23;;;;;;;10.50;9.40;;;;;;;22.90;63.23;101074.19;5073064;28;20028;-60
2022/06/26 13:07:48;;;;;;;10.93;9.93;;;;;;;22.97;63.02;101072.88;5073926;28;20058;-57
2022/06/26 13:10:14;;;;;;;10.27;9.27;;;;;;;22.94;62.80;101075.72;5074089;28;20021;-53
2022/06/26 13:12:39;;;;;;;9.90;8.52;;;;;;;22.97;62.32;101080.88;5039688;28;20337;-56
2022/06/26 13:15:05;;;;;;;10.00;9.00;;;;;;;23.01;62.03;101075.38;5072727;28;20016;-56
2022/06/26 13:17:30;;;;;;;9.60;8.60;;;;;;;23.03;62.38;101074.31;5073717;28;20357;-56
2022/06/26 13:19:56;;;;;;;10.07;9.05;;;;;;;23.02;62.28;101077.09;5072537;28;20463;-55
2022/06/26 13:22:23;;;;;;;9.57;8.68;;;;;;;23.06;61.78;101067.94;5072632;28;20040;-56
2022/06/26 13:24:51;;;;;;;10.43;9.48;;;;;;;23.04;61.72;101068.06;5072444;28;20070;-56
2022/06/26 13:27:19;;;;;;;10.13;9.13;;;;;;;23.12;61.36;101059.59;5072270;28;20040;-51
2022/06/26 13:29:44;;;;;;;9.50;8.60;;;;;;;23.14;61.37;101060.34;5073535;28;20025;-55
2022/06/26 13:32:09;;;;;;;9.02;8.13;;;;;;;23.15;61.06;101057.56;5072320;28;20036;-56
2022/06/26 13:34:35;;;;;;;10.43;8.30;;;;;;;23.18;60.66;101059.22;5072982;28;20032;-55
2022/06/26 13:37:01;;;;;;;9.60;8.32;;;;;;;23.18;60.26;101059.22;5072616;28;20041;-52
2022/06/26 13:39:26;;;;;;;9.52;8.32;;;;;;;23.17;60.85;101055.66;5072952;28;20028;-55
2022/06/26 13:41:54;;;;;;;9.02;8.13;;;;;;;23.18;60.65;101051.22;5055611;28;20031;-52
2022/06/26 13:44:22;;;;;;;8.98;8.18;;;;;;;23.22;60.41;101051.88;5056113;28;20020;-55
2022/06/26 13:46:50;;;;;;;8.60;7.80;;;;;;;23.24;60.73;101048.16;5072803;28;20262;-54
2022/06/26 13:49:18;;;;;;;9.48;8.07;;;;;;;23.21;61.00;101053.69;5072551;28;20052;-54
2022/06/26 13:51:46;;;;;;;8.45;7.53;;;;;;;23.25;60.24;101051.69;5073479;28;20032;-56
2022/06/26 13:54:14;;;;;;;8.60;7.75;;;;;;;23.26;60.58;101058.75;5055605;28;20400;-56
2022/06/26 13:56:39;;;;;;;8.50;7.70;;;;;;;23.33;60.23;101054.75;5072548;28;20024;-56
2022/06/26 13:59:04;;;;;;;9.05;8.10;;;;;;;23.35;59.67;101053.69;5071543;28;20035;-54
2022/06/26 14:01:30;;;;;;;8.68;7.88;;;;;;;23.36;59.78;101043.88;5072294;28;20090;-52
2022/06/26 14:04:00;;;;;;;8.32;7.63;;;;;;;23.44;59.04;101046.09;5055569;28;20021;-49
2022/06/26 14:06:26;;;;;;;8.63;7.82;;;;;;;23.54;58.97;101036.53;5073733;28;20109;-53
2022/06/26 14:08:54;;;;;;;9.38;7.32;;;;;;;23.51;59.34;101039.41;5071781;28;20353;-53
2022/06/26 14:11:21;;;;;;;8.15;7.20;;;;;;;23.58;58.81;101032.72;5072551;28;20024;-59
2022/06/26 14:13:46;;;;;;;10.80;7.72;;;;;;;23.68;58.93;101031.19;5071636;28;20020;-59
2022/06/26 14:16:11;;;;;;;7.82;7.13;;;;;;;23.76;58.26;101031.59;5072069;28;20021;-52
2022/06/26 14:18:37;;;;;;;8.23;7.30;;;;;;;23.74;58.02;101027.28;5072903;28;20029;-58
2022/06/26 14:21:07;;;;;;;7.50;6.72;;;;;;;23.78;58.17;101026.97;5071955;28;20029;-59
2022/06/26 14:26:18;;;;;;;8.30;7.50;;;;;;;23.69;58.38;101030.22;5072693;28;19924;-59
2022/06/26 14:28:47;;;;;;;8.18;7.38;;;;;;;23.79;58.23;101026.06;5072057;28;20054;-53
2022/06/26 14:31:15;;;;;;;8.10;7.40;;;;;;;23.86;57.73;101021.19;5055668;28;20017;-59
2022/06/26 14:33:41;;;;;;;8.05;7.32;;;;;;;23.90;57.64;101027.16;5073839;28;20047;-56
2022/06/26 14:36:12;;;;;;;9.05;7.53;;;;;;;23.84;58.42;101024.91;5055305;28;20009;-60
2022/06/26 14:38:39;;;;;;;7.97;7.18;;;;;;;23.96;57.85;101035.63;5047907;28;20370;-59
2022/06/26 14:41:09;;;;;;;7.78;6.97;;;;;;;23.96;57.58;101027.63;5071592;28;20100;-57
2022/06/26 14:43:35;;;;;;;8.43;7.15;;;;;;;23.97;57.65;101023.13;5071549;28;20024;-59
2022/06/26 14:46:05;;;;;;;8.40;6.60;;;;;;;23.87;58.06;101027.38;5071930;28;20078;-60
2022/06/26 14:48:31;;;;;;;8.27;7.30;;;;;;;23.75;57.81;101027.19;5076489;28;20016;-58
2022/06/26 14:51:01;;;;;;;8.60;7.35;;;;;;;23.64;57.91;101032.31;5075707;28;20017;-56
2022/06/26 14:53:26;;;;;;;9.18;7.38;;;;;;;23.59;58.67;101029.09;5076566;28;20044;-56
2022/06/26 14:55:52;;;;;;;9.52;8.13;;;;;;;23.54;58.60;101025.88;5076317;28;20028;-58
2022/06/26 14:58:27;;;;;;;8.93;8.02;;;;;;;23.51;59.12;101023.41;5075551;28;20090;-58
2022/06/26 15:00:52;;;;;;;10.05;7.78;;;;;;;23.47;58.84;101021.88;5076077;28;20032;-56
2022/06/26 15:03:18;;;;;;;9.48;8.48;;;;;;;23.46;58.52;101022.81;5076734;28;20016;-55
2022/06/26 15:05:43;;;;;;;9.88;8.88;;;;;;;23.45;58.52;101018.44;5058863;28;20028;-55
2022/06/26 15:08:09;;;;;;;9.75;8.43;;;;;;;23.44;58.43;101011.41;5076453;28;20016;-59
2022/06/26 15:10:36;;;;;;;10.23;7.88;;;;;;;23.44;58.45;101019.41;5076811;28;20046;-58
2022/06/26 15:13:05;;;;;;;9.27;7.35;;;;;;;23.39;58.94;101012.53;5076747;28;20035;-57
2022/06/26 15:15:30;;;;;;;8.07;7.28;;;;;;;23.39;58.72;101012.53;5075860;28;20017;-59
2022/06/26 15:17:59;;;;;;;8.75;7.90;;;;;;;23.43;59.20;101018.53;5076443;28;20024;-59
2022/06/26 15:20:27;;;;;;;7.22;6.50;;;;;;;23.42;59.03;101007.97;5075210;28;20024;-59
2022/06/26 15:22:56;;;;;;;9.43;7.53;;;;;;;23.33;59.61;101020.06;5074602;28;20354;-59
2022/06/26 15:25:23;;;;;;;9.02;7.25;;;;;;;23.35;59.31;101010.16;5076073;28;20020;-60
2022/06/26 15:27:53;;;;;;;6.97;6.05;;;;;;;23.38;59.12;101009.94;5074972;28;20046;-61
2022/06/26 15:30:18;;;;;;;9.32;7.05;;;;;;;23.36;58.57;101002.03;5042253;28;20357;-59
2022/06/26 15:32:44;;;;;;;8.10;7.32;;;;;;;23.41;58.48;101016.91;5075749;28;20032;-60
2022/06/26 15:35:12;;;;;;;7.55;6.85;;;;;;;23.37;58.56;101009.09;5075195;28;20025;-59
2022/06/26 15:37:39;;;;;;;7.57;6.80;;;;;;;23.54;58.34;101016.03;5076705;28;20390;-59
2022/06/26 15:40:08;;;;;;;9.98;7.75;;;;;;;23.42;58.58;101010.63;5077317;28;20095;-57
2022/06/26 15:42:33;;;;;;;9.77;7.70;;;;;;;23.34;58.58;101009.31;5060338;28;20120;-61
2022/06/26 15:44:59;;;;;;;10.45;7.47;;;;;;;23.40;59.02;101002.72;5077534;28;20353;-59
2022/06/26 15:47:24;;;;;;;8.30;7.50;;;;;;;23.35;58.75;101005.66;5076891;28;20028;-63
2022/06/26 15:49:49;;;;;;;9.35;8.02;;;;;;;23.39;59.13;101007.19;5077377;28;20025;-61
2022/06/26 15:52:20;;;;;;;8.27;7.47;;;;;;;23.30;59.33;101007.78;5076141;28;20032;-63
2022/06/26 15:54:45;;;;;;;8.15;7.35;;;;;;;23.34;59.22;101009.31;5077534;28;20071;-62
2022/06/26 15:57:10;;;;;;;9.15;7.68;;;;;;;23.41;59.10;101011.56;5076639;28;20029;-57
2022/06/26 15:59:39;;;;;;;9.45;6.60;;;;;;;23.42;60.20;101006.16;5077532;28;20464;-56
2022/06/26 16:02:06;;;;;;;9.00;6.57;;;;;;;23.48;59.45;101007.56;5077030;28;20048;-64
2022/06/26 16:04:32;;;;;;;9.40;6.68;;;;;;;23.54;58.97;101005.34;5076991;28;20025;-60
2022/06/26 16:06:59;;;;;;;7.65;6.43;;;;;;;23.56;58.96;101005.28;5077183;28;20427;-58
2022/06/26 16:09:27;;;;;;;10.52;7.05;;;;;;;23.54;58.64;101001.84;5080233;28;20024;-62
2022/06/26 16:11:53;;;;;;;7.88;6.70;;;;;;;23.53;59.32;101000.09;5077187;28;20107;-51
2022/06/26 16:14:18;;;;;;;8.98;7.00;;;;;;;23.50;58.80;101003.84;5059483;28;20350;-44
2022/06/26 16:16:46;;;;;;;6.97;6.28;;;;;;;23.35;59.31;100997.66;5058498;28;20012;-45
2022/06/26 16:19:11;;;;;;;7.63;6.47;;;;;;;23.32;59.25;101008.53;5075156;28;20025;-45
2022/06/26 16:21:36;;;;;;;6.97;6.28;;;;;;;23.26;59.49;100998.22;5076373;28;20020;-47
2022/06/26 16:26:48;;;;;;;7.00;6.30;;;;;;;23.24;59.51;100997.47;5059602;28;20135;-45
2022/06/26 16:29:14;;;;;;;8.70;6.95;;;;;;;23.22;59.52;100999.38;5058705;28;20032;-45
2022/06/26 16:31:42;;;;;;;7.95;7.15;;;;;;;23.23;59.43;100995.78;5056964;28;20043;-45
2022/06/26 16:34:09;;;;;;;8.10;6.68;;;;;;;23.22;59.59;100994.03;5074618;28;20028;-43
2022/06/26 16:36:35;;;;;;;7.45;6.63;;;;;;;23.22;59.61;100996.69;5076384;28;20016;-44
2022/06/26 16:39:00;;;;;;;6.97;6.28;;;;;;;23.21;59.67;100992.34;5057507;28;20067;-45
2022/06/26 16:41:26;;;;;;;8.32;6.70;;;;;;;23.22;59.64;100998.53;5073695;28;20035;-43
2022/06/26 16:43:54;;;;;;;6.95;6.25;;;;;;;23.21;59.77;100997.66;5073406;28;20036;-41
2022/06/26 16:46:19;;;;;;;6.70;6.00;;;;;;;23.23;59.55;100997.59;5073602;28;20046;-43
2022/06/26 16:48:47;;;;;;;8.43;6.60;;;;;;;23.20;59.83;101000.44;5075000;28;20036;-43
2022/06/26 16:51:17;;;;;;;7.95;7.10;;;;;;;23.20;59.98;100995.09;5073962;28;20479;-45
2022/06/26 16:53:43;;;;;;;7.78;6.82;;;;;;;23.27;60.38;100994.63;5057510;28;20429;-42
2022/06/26 16:56:10;;;;;;;13.18;7.00;;;;;;;23.18;60.50;101008.53;5074463;28;20023;-41
2022/06/26 16:58:36;;;;;;;9.05;6.97;;;;;;;23.08;60.65;100996.72;5073005;28;20017;-41
2022/06/26 17:01:03;;;;;;;7.97;7.18;;;;;;;23.02;61.15;100995.28;5073188;28;20395;-41
2022/06/26 17:03:29;;;;;;;8.40;6.95;;;;;;;23.03;61.49;100998.81;5074582;28;20025;-41
2022/06/26 17:05:54;;;;;;;8.93;7.32;;;;;;;23.06;61.82;100995.94;5074676;28;20426;-42
2022/06/26 17:08:19;;;;;;;12.10;7.20;;;;;;;23.05;61.54;100994.25;5073274;28;20024;-43
2022/06/26 17:10:45;;;;;;;12.45;7.43;;;;;;;23.05;62.04;100994.25;5072807;28;20024;-44
2022/06/26 17:13:10;;;;;;;9.40;7.80;;;;;;;23.03;62.09;100994.31;5056113;28;20017;-43
2022/06/26 17:15:36;;;;;;;11.10;7.63;;;;;;;23.04;62.46;100993.38;5072970;28;20129;-43
2022/06/26 17:18:04;;;;;;;16.67;8.88;;;;;;;23.01;62.60;100990.88;5056558;28;20025;-43
2022/06/26 17:20:29;;;;;;;12.70;8.73;;;;;;;23.00;62.46;100988.34;5073029;28;20086;-42
2022/06/26 17:23:00;;;;;;;16.00;7.88;;;;;;;22.99;62.76;100994.59;5072977;28;20024;-40
2022/06/26 17:25:25;;;;;;;12.40;7.97;;;;;;;22.96;62.76;100988.47;5073213;28;20458;-41
2022/06/26 17:27:50;;;;;;;15.32;9.05;;;;;;;22.94;63.28;100987.72;5073557;28;20021;-44
2022/06/26 17:30:17;;;;;;;15.98;8.05;;;;;;;22.93;63.36;100988.66;5073552;28;20017;-40
2022/06/26 17:32:43;;;;;;;12.80;8.13;;;;;;;22.95;63.43;100984.09;5072571;28;20419;-41
2022/06/26 17:35:11;;;;;;;14.23;8.18;;;;;;;22.97;63.75;100992.88;5072254;28;20028;-43
2022/06/26 17:37:37;;;;;;;20.65;8.40;;;;;;;23.06;63.51;100993.28;5072405;28;20450;-55
2022/06/26 17:40:08;;;;;;;13.48;8.70;;;;;;;23.09;63.68;100985.09;5073863;28;20028;-58
2022/06/26 17:42:33;;;;;;;14.73;8.52;;;;;;;23.08;63.30;100986.03;5073597;28;20016;-49
2022/06/26 17:44:59;;;;;;;18.15;9.35;;;;;;;23.14;63.49;100988.34;5072851;28;20087;-49
2022/06/26 17:47:46;;;;;;;18.63;9.13;;;;;;;23.15;63.64;100998.03;5076547;28;20039;-41
2022/06/26 17:50:15;;;;;;;43.20;10.13;;;;;;;22.95;63.74;100997.44;5075550;28;20024;-40
2022/06/26 17:52:42;;;;;;;20.30;9.05;;;;;;;22.87;64.17;100998.84;5058760;28;20028;-39
2022/06/26 17:55:08;;;;;;;18.20;9.07;;;;;;;22.82;63.88;101000.94;5075390;28;20108;-40
2022/06/26 17:57:36;;;;;;;14.88;8.27;;;;;;;22.79;64.32;101004.66;5076306;28;20115;-39
2022/06/26 18:00:01;;;;;;;18.48;9.98;;;;;;;22.76;64.40;100996.84;5079719;28;20032;-39